Pongnae — 3FDZ8 — position and weather

sailwx.info

Track history (hours):
 
Tides and Currents Weather Stations Pressure Air Temp Water Temp Dewpoint Dewpoint Depression Visibility Wind Speed Wind Dir Waves Ship Positions

Pongnae

Operator: V Ships Leisure SAM

Last reported at 2015-Jul-30 13:13 UTC. Time now 2015-Jul-30 22:59 UTC.
Position N 22°12' E 114°18'.

Length 171 m; draft 6.6 m.

Type: Passenger vessel. MMSI: 353669000.

Date/timePositionNaut miles runAvg speedWind from/ knotsBaromVisibWave heightAir tempDewpointWater temp
2015-Jul-30 13:13N 22°12' E 114°18'710.4
2015-Jul-30 12:34N 22°18' E 114°13'0 0.3
2015-Jul-30 11:28N 22°18' E 114°13'0 0.1
2015-Jul-30 10:31N 22°18' E 114°13'0 0.0
2015-Jul-30 09:31N 22°18' E 114°13'0 0.0
2015-Jul-30 08:31N 22°18' E 114°13'0 0.1
2015-Jul-30 07:31N 22°18' E 114°13'0 0.1
2015-Jul-30 06:31N 22°18' E 114°13'0 0.0
2015-Jul-30 05:31N 22°18' E 114°13'0 0.1
2015-Jul-30 04:31N 22°18' E 114°13'0 0.1
2015-Jul-30 03:31N 22°18' E 114°13'0 0.1
2015-Jul-30 02:31N 22°18' E 114°13'0 0.0
2015-Jul-30 01:31N 22°18' E 114°13'0 0.0
2015-Jul-30 00:31N 22°18' E 114°13'1 1.1
2015-Jul-29 23:33N 22°17' E 114°14'10 8.6
2015-Jul-29 22:20N 22°08' E 114°19'6 0.7
2015-Jul-29 13:11N 22°13' E 114°17'6 9.0
2015-Jul-29 12:33N 22°18' E 114°13'0 0.1
2015-Jul-29 11:30N 22°18' E 114°13'0 0.0
2015-Jul-29 10:33N 22°18' E 114°13'0 0.0
2015-Jul-29 09:33N 22°18' E 114°13'0 0.0
2015-Jul-29 08:33N 22°18' E 114°13'0 0.0
2015-Jul-29 07:30N 22°18' E 114°13'0 0.1
2015-Jul-29 06:33N 22°18' E 114°13'0 0.1
2015-Jul-29 05:33N 22°18' E 114°13'0 0.1
2015-Jul-29 04:33N 22°18' E 114°13'0 0.0
2015-Jul-29 03:33N 22°18' E 114°13'0 0.0
2015-Jul-29 02:33N 22°18' E 114°13'0 0.0
2015-Jul-29 01:33N 22°18' E 114°13'0 0.0
2015-Jul-29 00:33N 22°18' E 114°13'1 1.3
2015-Jul-28 23:33N 22°17' E 114°14'1 0.1
2015-Jul-28 12:34N 22°18' E 114°13'0 0.1
2015-Jul-28 11:31N 22°18' E 114°13'0 0.0
2015-Jul-28 10:34N 22°18' E 114°13'0 0.0
2015-Jul-28 09:34N 22°18' E 114°13'0 0.1
2015-Jul-28 08:33N 22°18' E 114°13'0 0.1
2015-Jul-28 07:33N 22°18' E 114°13'0 0.1
2015-Jul-28 06:33N 22°18' E 114°13'0 0.0
2015-Jul-28 05:33N 22°18' E 114°13'0 0.1
2015-Jul-28 04:33N 22°18' E 114°13'0 0.1
2015-Jul-28 03:33N 22°18' E 114°13'0 0.0
2015-Jul-28 02:33N 22°18' E 114°13'0 0.0
2015-Jul-28 01:30N 22°18' E 114°13'0 0.0
2015-Jul-28 00:33N 22°18' E 114°13'1 0.5
2015-Jul-27 23:33N 22°17' E 114°14'9 8.4
2015-Jul-27 22:32N 22°11' E 114°20'2 0.2
2015-Jul-27 13:22N 22°13' E 114°18'7 8.6
2015-Jul-27 12:33N 22°18' E 114°13'0 0.0
2015-Jul-27 11:33N 22°18' E 114°13'0 0.0
2015-Jul-27 10:33N 22°18' E 114°13'0 0.0
2015-Jul-27 09:33N 22°18' E 114°13'0 0.0
2015-Jul-27 08:33N 22°18' E 114°13'0 0.0
2015-Jul-27 07:33N 22°18' E 114°13'0 0.0
2015-Jul-27 06:33N 22°18' E 114°13'0 0.1
2015-Jul-27 05:33N 22°18' E 114°13'0 0.1
2015-Jul-27 04:33N 22°18' E 114°13'0 0.0
2015-Jul-27 03:33N 22°18' E 114°13'0 0.0
2015-Jul-27 02:33N 22°18' E 114°13'0 0.0
2015-Jul-27 01:33N 22°18' E 114°13'0 0.0
2015-Jul-27 00:33N 22°18' E 114°13'2 2.3
2015-Jul-26 23:33N 22°17' E 114°15'9 7.9
2015-Jul-26 22:28N 22°09' E 114°19'4 0.4
2015-Jul-26 13:23N 22°12' E 114°18'7 8.3
2015-Jul-26 12:31N 22°18' E 114°13'0 0.0
2015-Jul-26 11:31N 22°18' E 114°13'0 0.0
2015-Jul-26 10:31N 22°18' E 114°13'0 0.0
2015-Jul-26 09:31N 22°18' E 114°13'0 0.0
2015-Jul-26 08:31N 22°18' E 114°13'0 0.0
2015-Jul-26 07:31N 22°18' E 114°13'0 0.1
2015-Jul-26 06:31N 22°18' E 114°13'0 0.0
2015-Jul-26 05:31N 22°18' E 114°13'0 0.0
2015-Jul-26 04:31N 22°18' E 114°13'0 0.0
2015-Jul-26 03:31N 22°18' E 114°13'0 0.1
2015-Jul-26 02:31N 22°18' E 114°13'0 0.0
2015-Jul-26 01:31N 22°18' E 114°13'0 0.0
2015-Jul-26 00:31N 22°18' E 114°13'2 1.6
2015-Jul-25 23:33N 22°17' E 114°15'6 0.6
2015-Jul-25 13:20N 22°12' E 114°19'8 9.8
2015-Jul-25 12:33N 22°18' E 114°13'0 0.0
2015-Jul-25 11:33N 22°18' E 114°13'0 0.1
2015-Jul-25 10:32N 22°18' E 114°13'0 0.0
2015-Jul-25 09:32N 22°18' E 114°13'0 0.0
2015-Jul-25 08:32N 22°18' E 114°13'0 0.0
2015-Jul-25 07:32N 22°18' E 114°13'0 0.1
2015-Jul-25 06:32N 22°18' E 114°13'0 0.1
2015-Jul-25 05:32N 22°18' E 114°13'0 0.0
2015-Jul-25 04:32N 22°18' E 114°13'0 0.0
2015-Jul-25 03:32N 22°18' E 114°13'0 0.1
2015-Jul-25 02:32N 22°18' E 114°13'0 0.1
2015-Jul-25 01:32N 22°18' E 114°13'0 0.0
2015-Jul-25 00:32N 22°18' E 114°13'2 1.9
2015-Jul-24 23:33N 22°17' E 114°15'5 0.5
2015-Jul-24 13:19N 22°12' E 114°18'7 9.2
2015-Jul-24 12:32N 22°18' E 114°13'0 0.0
2015-Jul-24 11:32N 22°18' E 114°13'0 0.1
2015-Jul-24 10:32N 22°18' E 114°13'0 0.0
2015-Jul-24 09:32N 22°18' E 114°13'0 0.0
2015-Jul-24 08:29N 22°18' E 114°13'0 0.1
2015-Jul-24 07:32N 22°18' E 114°13'0 0.1
2015-Jul-24 06:32N 22°18' E 114°13'0 0.1
2015-Jul-24 05:32N 22°18' E 114°13'0 0.0
2015-Jul-24 04:32N 22°18' E 114°13'0 0.0
2015-Jul-24 03:32N 22°18' E 114°13'0 0.0
2015-Jul-24 02:31N 22°18' E 114°13'0 0.1
2015-Jul-24 01:31N 22°18' E 114°13'0 0.1
2015-Jul-24 00:31N 22°18' E 114°13'4 4.0
2015-Jul-23 23:33N 22°15' E 114°16'3 0.3
2015-Jul-23 13:17N 22°13' E 114°18'7 9.4
2015-Jul-23 12:33N 22°18' E 114°13'0 0.0
2015-Jul-23 11:33N 22°18' E 114°13'0 0.0
2015-Jul-23 10:33N 22°18' E 114°13'0 0.0
2015-Jul-23 09:33N 22°18' E 114°13'0 0.0
2015-Jul-23 08:33N 22°18' E 114°13'0 0.0
2015-Jul-23 07:33N 22°18' E 114°13'0 0.1
2015-Jul-23 06:33N 22°18' E 114°13'0 0.1
2015-Jul-23 05:33N 22°18' E 114°13'0 0.0
2015-Jul-23 04:33N 22°18' E 114°13'0 0.0
2015-Jul-23 03:33N 22°18' E 114°13'0 0.1
2015-Jul-23 02:33N 22°18' E 114°13'0 0.1
2015-Jul-23 01:33N 22°18' E 114°13'0 0.0
2015-Jul-23 00:33N 22°18' E 114°13'1 1.1
2015-Jul-22 23:33N 22°17' E 114°14'6 0.6
2015-Jul-22 13:09N 22°12' E 114°18'610.9
2015-Jul-22 12:33N 22°17' E 114°14'1 0.7
2015-Jul-22 11:32N 22°18' E 114°13'0 0.0
2015-Jul-22 10:32N 22°18' E 114°13'0 0.1
2015-Jul-22 09:32N 22°18' E 114°13'0 0.0
2015-Jul-22 08:32N 22°18' E 114°13'0 0.0
2015-Jul-22 02:31N 22°18' E 114°13'0 0.0
2015-Jul-22 01:31N 22°18' E 114°13'0 0.1
2015-Jul-22 00:31N 22°18' E 114°13'1 1.0
2015-Jul-21 23:33N 22°17' E 114°14'6 0.6
2015-Jul-21 13:16N 22°12' E 114°18'710.3
2015-Jul-21 12:33N 22°18' E 114°13'0 0.2
2015-Jul-21 11:33N 22°18' E 114°13'0 0.0
2015-Jul-21 10:33N 22°18' E 114°13'0 0.0
2015-Jul-21 09:33N 22°18' E 114°13'0 0.0
2015-Jul-21 08:33N 22°18' E 114°13'0 0.0
2015-Jul-21 07:33N 22°18' E 114°13'0 0.0
2015-Jul-21 06:33N 22°18' E 114°13'0 0.0
2015-Jul-21 05:33N 22°18' E 114°13'0 0.0
2015-Jul-21 04:33N 22°18' E 114°13'0 0.0
2015-Jul-21 03:33N 22°18' E 114°13'0 0.0
2015-Jul-21 02:33N 22°18' E 114°13'0 0.0
2015-Jul-21 01:33N 22°18' E 114°13'0 0.0
2015-Jul-21 00:33N 22°18' E 114°13'1 1.2
2015-Jul-20 23:33N 22°17' E 114°14'9 8.3
2015-Jul-20 22:31N 22°10' E 114°20'2 0.2
2015-Jul-20 13:27N 22°12' E 114°19'  
Track history (hours):
 
Tides and Currents Weather Stations Pressure Air Temp Water Temp Dewpoint Dewpoint Depression Visibility Wind Speed Wind Dir Waves Ship Positions

Pongnae

Operator: V Ships Leisure SAM

Last reported at 2015-Jul-30 13:13 UTC. Time now 2015-Jul-30 22:59 UTC.
Position N 22°12' E 114°18'.

Length 171 m; draft 6.6 m.

Type: Passenger vessel. MMSI: 353669000.

Date/timePositionNaut miles runAvg speedWind from/ knotsBaromVisibWave heightAir tempDewpointWater temp
2015-Jul-30 13:13N 22°12' E 114°18'710.4
2015-Jul-30 12:34N 22°18' E 114°13'0 0.3
2015-Jul-30 11:28N 22°18' E 114°13'0 0.1
2015-Jul-30 10:31N 22°18' E 114°13'0 0.0
2015-Jul-30 09:31N 22°18' E 114°13'0 0.0
2015-Jul-30 08:31N 22°18' E 114°13'0 0.1
2015-Jul-30 07:31N 22°18' E 114°13'0 0.1
2015-Jul-30 06:31N 22°18' E 114°13'0 0.0
2015-Jul-30 05:31N 22°18' E 114°13'0 0.1
2015-Jul-30 04:31N 22°18' E 114°13'0 0.1
2015-Jul-30 03:31N 22°18' E 114°13'0 0.1
2015-Jul-30 02:31N 22°18' E 114°13'0 0.0
2015-Jul-30 01:31N 22°18' E 114°13'0 0.0
2015-Jul-30 00:31N 22°18' E 114°13'1 1.1
2015-Jul-29 23:33N 22°17' E 114°14'10 8.6
2015-Jul-29 22:20N 22°08' E 114°19'6 0.7
2015-Jul-29 13:11N 22°13' E 114°17'6 9.0
2015-Jul-29 12:33N 22°18' E 114°13'0 0.1
2015-Jul-29 11:30N 22°18' E 114°13'0 0.0
2015-Jul-29 10:33N 22°18' E 114°13'0 0.0
2015-Jul-29 09:33N 22°18' E 114°13'0 0.0
2015-Jul-29 08:33N 22°18' E 114°13'0 0.0
2015-Jul-29 07:30N 22°18' E 114°13'0 0.1
2015-Jul-29 06:33N 22°18' E 114°13'0 0.1
2015-Jul-29 05:33N 22°18' E 114°13'0 0.1
2015-Jul-29 04:33N 22°18' E 114°13'0 0.0
2015-Jul-29 03:33N 22°18' E 114°13'0 0.0
2015-Jul-29 02:33N 22°18' E 114°13'0 0.0
2015-Jul-29 01:33N 22°18' E 114°13'0 0.0
2015-Jul-29 00:33N 22°18' E 114°13'1 1.3
2015-Jul-28 23:33N 22°17' E 114°14'1 0.1
2015-Jul-28 12:34N 22°18' E 114°13'0 0.1
2015-Jul-28 11:31N 22°18' E 114°13'0 0.0
2015-Jul-28 10:34N 22°18' E 114°13'0 0.0
2015-Jul-28 09:34N 22°18' E 114°13'0 0.1
2015-Jul-28 08:33N 22°18' E 114°13'0 0.1
2015-Jul-28 07:33N 22°18' E 114°13'0 0.1
2015-Jul-28 06:33N 22°18' E 114°13'0 0.0
2015-Jul-28 05:33N 22°18' E 114°13'0 0.1
2015-Jul-28 04:33N 22°18' E 114°13'0 0.1
2015-Jul-28 03:33N 22°18' E 114°13'0 0.0
2015-Jul-28 02:33N 22°18' E 114°13'0 0.0
2015-Jul-28 01:30N 22°18' E 114°13'0 0.0
2015-Jul-28 00:33N 22°18' E 114°13'1 0.5
2015-Jul-27 23:33N 22°17' E 114°14'9 8.4
2015-Jul-27 22:32N 22°11' E 114°20'2 0.2
2015-Jul-27 13:22N 22°13' E 114°18'7 8.6
2015-Jul-27 12:33N 22°18' E 114°13'0 0.0
2015-Jul-27 11:33N 22°18' E 114°13'0 0.0
2015-Jul-27 10:33N 22°18' E 114°13'0 0.0
2015-Jul-27 09:33N 22°18' E 114°13'0 0.0
2015-Jul-27 08:33N 22°18' E 114°13'0 0.0
2015-Jul-27 07:33N 22°18' E 114°13'0 0.0
2015-Jul-27 06:33N 22°18' E 114°13'0 0.1
2015-Jul-27 05:33N 22°18' E 114°13'0 0.1
2015-Jul-27 04:33N 22°18' E 114°13'0 0.0
2015-Jul-27 03:33N 22°18' E 114°13'0 0.0
2015-Jul-27 02:33N 22°18' E 114°13'0 0.0
2015-Jul-27 01:33N 22°18' E 114°13'0 0.0
2015-Jul-27 00:33N 22°18' E 114°13'2 2.3
2015-Jul-26 23:33N 22°17' E 114°15'9 7.9
2015-Jul-26 22:28N 22°09' E 114°19'4 0.4
2015-Jul-26 13:23N 22°12' E 114°18'7 8.3
2015-Jul-26 12:31N 22°18' E 114°13'0 0.0
2015-Jul-26 11:31N 22°18' E 114°13'0 0.0
2015-Jul-26 10:31N 22°18' E 114°13'0 0.0
2015-Jul-26 09:31N 22°18' E 114°13'0 0.0
2015-Jul-26 08:31N 22°18' E 114°13'0 0.0
2015-Jul-26 07:31N 22°18' E 114°13'0 0.1
2015-Jul-26 06:31N 22°18' E 114°13'0 0.0
2015-Jul-26 05:31N 22°18' E 114°13'0 0.0
2015-Jul-26 04:31N 22°18' E 114°13'0 0.0
2015-Jul-26 03:31N 22°18' E 114°13'0 0.1
2015-Jul-26 02:31N 22°18' E 114°13'0 0.0
2015-Jul-26 01:31N 22°18' E 114°13'0 0.0
2015-Jul-26 00:31N 22°18' E 114°13'2 1.6
2015-Jul-25 23:33N 22°17' E 114°15'6 0.6
2015-Jul-25 13:20N 22°12' E 114°19'8 9.8
2015-Jul-25 12:33N 22°18' E 114°13'0 0.0
2015-Jul-25 11:33N 22°18' E 114°13'0 0.1
2015-Jul-25 10:32N 22°18' E 114°13'0 0.0
2015-Jul-25 09:32N 22°18' E 114°13'0 0.0
2015-Jul-25 08:32N 22°18' E 114°13'0 0.0
2015-Jul-25 07:32N 22°18' E 114°13'0 0.1
2015-Jul-25 06:32N 22°18' E 114°13'0 0.1
2015-Jul-25 05:32N 22°18' E 114°13'0 0.0
2015-Jul-25 04:32N 22°18' E 114°13'0 0.0
2015-Jul-25 03:32N 22°18' E 114°13'0 0.1
2015-Jul-25 02:32N 22°18' E 114°13'0 0.1
2015-Jul-25 01:32N 22°18' E 114°13'0 0.0
2015-Jul-25 00:32N 22°18' E 114°13'2 1.9
2015-Jul-24 23:33N 22°17' E 114°15'5 0.5
2015-Jul-24 13:19N 22°12' E 114°18'7 9.2
2015-Jul-24 12:32N 22°18' E 114°13'0 0.0
2015-Jul-24 11:32N 22°18' E 114°13'0 0.1
2015-Jul-24 10:32N 22°18' E 114°13'0 0.0
2015-Jul-24 09:32N 22°18' E 114°13'0 0.0
2015-Jul-24 08:29N 22°18' E 114°13'0 0.1
2015-Jul-24 07:32N 22°18' E 114°13'0 0.1
2015-Jul-24 06:32N 22°18' E 114°13'0 0.1
2015-Jul-24 05:32N 22°18' E 114°13'0 0.0
2015-Jul-24 04:32N 22°18' E 114°13'0 0.0
2015-Jul-24 03:32N 22°18' E 114°13'0 0.0
2015-Jul-24 02:31N 22°18' E 114°13'0 0.1
2015-Jul-24 01:31N 22°18' E 114°13'0 0.1
2015-Jul-24 00:31N 22°18' E 114°13'4 4.0
2015-Jul-23 23:33N 22°15' E 114°16'3 0.3
2015-Jul-23 13:17N 22°13' E 114°18'7 9.4
2015-Jul-23 12:33N 22°18' E 114°13'0 0.0
2015-Jul-23 11:33N 22°18' E 114°13'0 0.0
2015-Jul-23 10:33N 22°18' E 114°13'0 0.0
2015-Jul-23 09:33N 22°18' E 114°13'0 0.0
2015-Jul-23 08:33N 22°18' E 114°13'0 0.0
2015-Jul-23 07:33N 22°18' E 114°13'0 0.1
2015-Jul-23 06:33N 22°18' E 114°13'0 0.1
2015-Jul-23 05:33N 22°18' E 114°13'0 0.0
2015-Jul-23 04:33N 22°18' E 114°13'0 0.0
2015-Jul-23 03:33N 22°18' E 114°13'0 0.1
2015-Jul-23 02:33N 22°18' E 114°13'0 0.1
2015-Jul-23 01:33N 22°18' E 114°13'0 0.0
2015-Jul-23 00:33N 22°18' E 114°13'1 1.1
2015-Jul-22 23:33N 22°17' E 114°14'6 0.6
2015-Jul-22 13:09N 22°12' E 114°18'610.9
2015-Jul-22 12:33N 22°17' E 114°14'1 0.7
2015-Jul-22 11:32N 22°18' E 114°13'0 0.0
2015-Jul-22 10:32N 22°18' E 114°13'0 0.1
2015-Jul-22 09:32N 22°18' E 114°13'0 0.0
2015-Jul-22 08:32N 22°18' E 114°13'0 0.0
2015-Jul-22 02:31N 22°18' E 114°13'0 0.0
2015-Jul-22 01:31N 22°18' E 114°13'0 0.1
2015-Jul-22 00:31N 22°18' E 114°13'1 1.0
2015-Jul-21 23:33N 22°17' E 114°14'6 0.6
2015-Jul-21 13:16N 22°12' E 114°18'710.3
2015-Jul-21 12:33N 22°18' E 114°13'0 0.2
2015-Jul-21 11:33N 22°18' E 114°13'0 0.0
2015-Jul-21 10:33N 22°18' E 114°13'0 0.0
2015-Jul-21 09:33N 22°18' E 114°13'0 0.0
2015-Jul-21 08:33N 22°18' E 114°13'0 0.0
2015-Jul-21 07:33N 22°18' E 114°13'0 0.0
2015-Jul-21 06:33N 22°18' E 114°13'0 0.0
2015-Jul-21 05:33N 22°18' E 114°13'0 0.0
2015-Jul-21 04:33N 22°18' E 114°13'0 0.0
2015-Jul-21 03:33N 22°18' E 114°13'0 0.0
2015-Jul-21 02:33N 22°18' E 114°13'0 0.0
2015-Jul-21 01:33N 22°18' E 114°13'0 0.0
2015-Jul-21 00:33N 22°18' E 114°13'1 1.2
2015-Jul-20 23:33N 22°17' E 114°14'9 8.3
2015-Jul-20 22:31N 22°10' E 114°20'2 0.2
2015-Jul-20 13:27N 22°12' E 114°19'  

Dump ship's entire track history